createdAt,value
2023-05-06T00:01:47.970Z,94.50
2023-05-06T00:04:14.671Z,94.70
2023-05-06T00:06:48.209Z,94.70
2023-05-06T00:09:14.445Z,94.50
2023-05-06T00:11:40.769Z,94.70
2023-05-06T00:14:06.971Z,94.90
2023-05-06T00:16:33.200Z,95.00
2023-05-06T00:18:59.456Z,94.70
2023-05-06T00:21:26.457Z,94.80
2023-05-06T00:23:52.863Z,94.70
2023-05-06T00:26:19.029Z,94.80
2023-05-06T00:28:45.244Z,94.50
2023-05-06T00:31:11.415Z,94.60
2023-05-06T00:33:37.591Z,94.90
2023-05-06T00:36:04.400Z,95.00
2023-05-06T00:38:30.605Z,94.70
2023-05-06T00:40:56.888Z,94.80
2023-05-06T00:43:23.143Z,95.20
2023-05-06T00:45:49.334Z,95.00
2023-05-06T00:48:15.533Z,94.90
2023-05-06T00:50:41.906Z,94.90
2023-05-06T00:53:09.012Z,95.10
2023-05-06T00:55:35.309Z,95.10
2023-05-06T00:58:01.480Z,95.20
2023-05-06T01:00:27.784Z,95.10
2023-05-06T01:02:54.002Z,95.60
2023-05-06T01:05:21.639Z,96.00
2023-05-06T01:08:14.273Z,95.20
2023-05-06T01:10:53.531Z,95.40
2023-05-06T01:15:58.174Z,95.10
2023-05-06T01:18:25.915Z,95.40
2023-05-06T01:20:52.965Z,94.80
2023-05-06T01:23:19.212Z,95.00
2023-05-06T01:25:45.343Z,94.70
2023-05-06T01:28:11.774Z,94.70
2023-05-06T01:30:55.369Z,95.00
2023-05-06T01:34:44.773Z,95.20
2023-05-06T01:37:20.039Z,94.60
2023-05-06T01:39:46.230Z,94.50
2023-05-06T01:42:12.573Z,94.40
2023-05-06T01:44:38.820Z,94.50
2023-05-06T01:47:05.441Z,94.40
2023-05-06T01:49:31.650Z,94.30
2023-05-06T01:51:57.856Z,94.60
2023-05-06T01:54:24.146Z,94.60
2023-05-06T01:56:50.283Z,94.30
2023-05-06T01:59:16.511Z,94.50
2023-05-06T02:01:42.769Z,94.50
2023-05-06T02:04:09.047Z,94.50
2023-05-06T02:06:35.223Z,94.60
2023-05-06T02:09:01.385Z,95.10
2023-05-06T02:11:28.100Z,95.00
2023-05-06T02:13:54.596Z,94.80
2023-05-06T02:16:21.264Z,94.80
2023-05-06T02:18:47.756Z,94.80
2023-05-06T02:21:14.116Z,94.90
2023-05-06T02:23:40.292Z,95.00
2023-05-06T02:26:06.480Z,94.70
2023-05-06T02:28:32.641Z,94.60
2023-05-06T02:30:59.013Z,94.80
2023-05-06T02:33:25.423Z,95.20
2023-05-06T02:35:51.601Z,94.80
2023-05-06T02:38:18.389Z,95.10
2023-05-06T02:40:44.617Z,95.20
2023-05-06T02:43:10.870Z,94.80
2023-05-06T02:45:37.053Z,94.70
2023-05-06T02:48:03.814Z,94.70
2023-05-06T02:50:29.997Z,95.10
2023-05-06T02:52:56.262Z,95.10
2023-05-06T02:55:22.710Z,95.00
2023-05-06T02:57:48.893Z,94.90
2023-05-06T03:00:15.816Z,95.10
2023-05-06T03:02:42.261Z,95.20
2023-05-06T03:05:09.344Z,95.60
2023-05-06T03:07:36.469Z,95.20
2023-05-06T03:10:02.772Z,95.90
2023-05-06T03:12:28.945Z,95.80
2023-05-06T03:14:55.142Z,96.00
2023-05-06T03:17:21.370Z,95.60
2023-05-06T03:19:49.648Z,95.90
2023-05-06T03:22:15.837Z,95.90
2023-05-06T03:24:42.027Z,95.90
2023-05-06T03:27:08.379Z,95.70
2023-05-06T03:29:34.588Z,95.80
2023-05-06T03:32:03.880Z,96.00
2023-05-06T03:34:30.108Z,95.90
2023-05-06T03:36:57.119Z,96.30
2023-05-06T03:39:23.376Z,96.30
2023-05-06T03:41:49.558Z,96.10
2023-05-06T03:44:15.823Z,95.80
2023-05-06T03:46:42.145Z,96.40
2023-05-06T03:49:08.515Z,96.80
2023-05-06T03:51:34.991Z,97.70
2023-05-06T03:54:01.167Z,97.20
2023-05-06T03:56:27.718Z,97.60
2023-05-06T03:58:54.052Z,98.60
2023-05-06T04:01:21.040Z,98.40
2023-05-06T04:03:47.327Z,98.30
2023-05-06T04:06:13.672Z,98.20
2023-05-06T04:08:40.056Z,98.50
2023-05-06T04:11:08.969Z,98.50
2023-05-06T04:13:35.104Z,98.10
2023-05-06T04:16:02.019Z,98.50
2023-05-06T04:18:28.359Z,98.40
2023-05-06T04:20:54.524Z,99.00
2023-05-06T04:23:21.220Z,99.10
2023-05-06T04:25:50.109Z,99.80
2023-05-06T04:28:16.901Z,99.90
2023-05-06T04:30:43.881Z,99.60
2023-05-06T04:33:10.381Z,99.90
2023-05-06T04:35:36.859Z,99.50
2023-05-06T04:38:03.116Z,99.70
2023-05-06T04:40:29.264Z,98.80
2023-05-06T04:42:55.409Z,98.80
2023-05-06T04:45:25.421Z,99.00
2023-05-06T04:47:51.890Z,98.90
2023-05-06T04:50:18.132Z,98.80
2023-05-06T04:52:44.413Z,98.80
2023-05-06T04:55:11.036Z,98.30
2023-05-06T04:57:37.514Z,97.80
2023-05-06T05:00:04.735Z,98.10
2023-05-06T05:02:31.081Z,98.00
2023-05-06T05:04:57.286Z,97.70
2023-05-06T05:07:23.558Z,97.70
2023-05-06T05:09:49.892Z,97.40
2023-05-06T05:12:16.104Z,97.50
2023-05-06T05:14:42.277Z,97.30
2023-05-06T05:17:08.534Z,97.20
2023-05-06T05:19:35.318Z,97.40
2023-05-06T05:22:01.482Z,97.10
2023-05-06T05:24:27.746Z,97.30
2023-05-06T05:26:53.882Z,97.20
2023-05-06T05:29:20.037Z,96.90
2023-05-06T05:31:46.319Z,96.60
2023-05-06T05:34:12.667Z,96.80
2023-05-06T05:36:39.110Z,96.60
2023-05-06T05:39:05.267Z,96.70
2023-05-06T05:41:31.538Z,96.70
2023-05-06T05:43:57.744Z,97.40
2023-05-06T05:46:23.904Z,96.70
2023-05-06T05:48:50.265Z,97.10
2023-05-06T05:51:16.492Z,97.30
2023-05-06T05:53:43.579Z,97.40
2023-05-06T05:56:09.712Z,97.80
2023-05-06T05:58:35.905Z,97.00
2023-05-06T06:01:03.522Z,97.00
2023-05-06T06:03:29.857Z,97.30
2023-05-06T06:05:56.124Z,96.80
2023-05-06T06:08:22.405Z,97.20
2023-05-06T06:10:48.526Z,97.30
2023-05-06T06:13:14.744Z,96.80
2023-05-06T06:15:40.995Z,97.90
2023-05-06T06:18:08.075Z,97.50
2023-05-06T06:20:35.039Z,98.10
2023-05-06T06:23:01.507Z,99.00
2023-05-06T06:25:27.637Z,99.30
2023-05-06T06:27:54.616Z,99.50
2023-05-06T06:30:20.885Z,99.90
2023-05-06T06:32:48.803Z,99.90
2023-05-06T06:35:15.090Z,99.90
2023-05-06T06:37:41.546Z,99.30
2023-05-06T06:40:09.690Z,99.80
2023-05-06T06:42:36.236Z,99.90
2023-05-06T06:45:03.086Z,99.90
2023-05-06T06:47:29.254Z,99.90
2023-05-06T06:49:55.458Z,99.90
2023-05-06T06:52:21.601Z,99.90
2023-05-06T06:54:47.793Z,99.90
2023-05-06T06:57:14.024Z,99.90
2023-05-06T06:59:40.187Z,99.90
2023-05-06T07:02:06.487Z,99.90
2023-05-06T07:04:32.790Z,99.90
2023-05-06T07:06:59.008Z,99.90
2023-05-06T07:09:25.349Z,99.90
2023-05-06T07:11:51.595Z,99.90
2023-05-06T07:14:17.722Z,99.90
2023-05-06T07:16:46.142Z,99.90
2023-05-06T07:19:13.142Z,99.90
2023-05-06T07:21:39.287Z,99.90
2023-05-06T07:24:06.386Z,99.90
2023-05-06T07:26:35.414Z,99.90
2023-05-06T07:29:01.740Z,99.90
2023-05-06T07:31:27.935Z,99.90
2023-05-06T07:33:54.148Z,99.90
2023-05-06T07:36:20.414Z,99.90
2023-05-06T07:38:46.566Z,99.90
2023-05-06T07:41:12.683Z,99.90
2023-05-06T07:43:38.913Z,99.90
2023-05-06T07:46:05.170Z,99.90
2023-05-06T07:48:32.595Z,99.90
2023-05-06T07:50:59.078Z,99.90
2023-05-06T07:53:25.687Z,99.90
2023-05-06T07:55:54.810Z,99.90
2023-05-06T07:58:20.970Z,99.90
2023-05-06T08:00:47.204Z,99.90
2023-05-06T08:03:14.072Z,99.90
2023-05-06T08:05:40.460Z,99.90
2023-05-06T08:08:06.727Z,99.90
2023-05-06T08:10:33.477Z,99.90
2023-05-06T08:12:59.800Z,99.90
2023-05-06T08:15:26.144Z,99.90
2023-05-06T08:17:52.442Z,99.90
2023-05-06T08:20:18.639Z,99.90
2023-05-06T08:22:45.071Z,99.90
2023-05-06T08:25:11.454Z,99.90
2023-05-06T08:27:37.960Z,99.90
2023-05-06T08:30:05.650Z,99.90
2023-05-06T08:32:32.137Z,99.90
2023-05-06T08:34:59.794Z,99.90
2023-05-06T08:37:25.983Z,99.90
2023-05-06T08:39:52.154Z,99.90
2023-05-06T08:42:19.012Z,99.90
2023-05-06T08:44:45.435Z,99.90
2023-05-06T08:47:11.643Z,99.90
2023-05-06T08:49:37.904Z,99.90
2023-05-06T08:52:04.918Z,99.90
2023-05-06T08:54:33.236Z,99.90
2023-05-06T08:56:59.467Z,99.90
2023-05-06T08:59:26.389Z,99.90
2023-05-06T09:01:52.922Z,99.90
2023-05-06T09:04:19.220Z,99.90
2023-05-06T09:06:45.630Z,99.90
2023-05-06T09:09:14.162Z,99.90
2023-05-06T09:11:40.526Z,99.90
2023-05-06T09:14:16.964Z,99.90
2023-05-06T09:16:44.373Z,99.90
2023-05-06T09:19:10.977Z,99.90
2023-05-06T09:21:38.951Z,99.90
2023-05-06T09:24:06.152Z,99.90
2023-05-06T09:26:33.386Z,99.90
2023-05-06T09:28:59.702Z,99.90
2023-05-06T09:31:26.336Z,99.90
2023-05-06T09:33:53.230Z,99.90
2023-05-06T09:36:20.100Z,99.90
2023-05-06T09:38:47.031Z,99.90
2023-05-06T09:41:13.482Z,99.90
2023-05-06T09:43:44.261Z,99.90
2023-05-06T09:46:11.856Z,99.90
2023-05-06T09:48:38.787Z,99.90
2023-05-06T09:51:06.557Z,99.90
2023-05-06T09:53:39.229Z,99.90
2023-05-06T09:56:05.855Z,99.90
2023-05-06T09:58:33.043Z,99.90
2023-05-06T10:00:59.472Z,99.90
2023-05-06T10:03:26.411Z,99.90
2023-05-06T10:05:53.889Z,99.90
2023-05-06T10:08:20.921Z,99.90
2023-05-06T10:10:47.373Z,99.90
2023-05-06T10:13:13.746Z,99.90
2023-05-06T10:15:40.397Z,99.90
2023-05-06T10:18:08.025Z,99.90
2023-05-06T10:20:36.471Z,99.90
2023-05-06T10:26:37.754Z,99.90
2023-05-06T10:29:09.076Z,99.90
2023-05-06T10:31:36.556Z,99.90
2023-05-06T10:34:03.803Z,99.90
2023-05-06T10:36:31.508Z,99.90
2023-05-06T10:39:00.060Z,99.90
2023-05-06T10:41:30.128Z,99.90
2023-05-06T10:43:56.816Z,99.90
2023-05-06T10:46:24.578Z,99.90
2023-05-06T10:52:22.506Z,99.90
2023-05-06T10:54:52.062Z,99.90
2023-05-06T10:57:20.136Z,99.90
2023-05-06T10:59:47.035Z,99.90
2023-05-06T11:02:13.471Z,99.90
2023-05-06T11:04:40.108Z,99.90
2023-05-06T11:07:14.114Z,99.90
2023-05-06T11:09:59.908Z,99.90
2023-05-06T11:12:45.626Z,99.90
2023-05-06T11:15:38.598Z,99.90
2023-05-06T11:18:45.080Z,99.90
2023-05-06T11:21:57.644Z,99.90
2023-05-06T11:24:28.743Z,99.90
2023-05-06T11:26:58.742Z,99.90
2023-05-06T11:29:25.629Z,99.90
2023-05-06T11:31:53.321Z,99.90
2023-05-06T11:34:27.520Z,99.90
2023-05-06T11:36:59.946Z,99.90
2023-05-06T11:39:36.635Z,99.90
2023-05-06T11:42:07.164Z,99.90
2023-05-06T11:44:34.722Z,99.90
2023-05-06T11:47:05.730Z,99.90
2023-05-06T11:49:39.126Z,99.90
2023-05-06T11:52:05.268Z,99.90
2023-05-06T11:54:34.469Z,99.90
2023-05-06T11:57:00.699Z,99.90
2023-05-06T11:59:31.476Z,99.90
2023-05-06T12:02:00.304Z,99.90
2023-05-06T12:04:26.757Z,99.90
2023-05-06T12:06:54.736Z,99.90
2023-05-06T12:09:21.792Z,99.90
2023-05-06T12:11:48.045Z,99.90
2023-05-06T12:14:14.248Z,99.90
2023-05-06T12:16:41.233Z,99.90
2023-05-06T12:19:07.532Z,99.90
2023-05-06T12:21:37.251Z,99.90
2023-05-06T12:24:03.967Z,99.90
2023-05-06T12:26:42.471Z,99.90
2023-05-06T12:29:10.140Z,99.90
2023-05-06T12:31:36.798Z,99.90
2023-05-06T12:34:03.694Z,99.90
2023-05-06T12:36:30.152Z,99.90
2023-05-06T12:38:57.403Z,99.90
2023-05-06T12:41:25.208Z,99.90
2023-05-06T12:43:54.841Z,99.90
2023-05-06T12:46:21.634Z,99.90
2023-05-06T12:49:01.558Z,99.90
2023-05-06T12:51:28.176Z,99.90
2023-05-06T12:53:54.439Z,99.90
2023-05-06T12:56:21.577Z,99.90
2023-05-06T12:59:01.322Z,99.90
2023-05-06T13:01:27.609Z,99.90
2023-05-06T13:03:56.412Z,99.90
2023-05-06T13:06:22.806Z,99.90
2023-05-06T13:08:48.993Z,99.90
2023-05-06T13:11:15.480Z,99.90
2023-05-06T13:13:41.850Z,99.90
2023-05-06T13:16:09.114Z,99.90
2023-05-06T13:18:35.536Z,99.90
2023-05-06T13:21:01.780Z,99.90
2023-05-06T13:23:27.992Z,99.90
2023-05-06T13:26:04.320Z,99.90
2023-05-06T13:28:32.743Z,99.90
2023-05-06T13:30:59.074Z,99.90
2023-05-06T13:33:25.291Z,99.90
2023-05-06T13:35:51.631Z,99.90
2023-05-06T13:38:18.511Z,99.90
2023-05-06T13:40:47.587Z,99.90
2023-05-06T13:43:14.856Z,99.90
2023-05-06T13:45:41.051Z,99.90
2023-05-06T13:48:07.854Z,99.90
2023-05-06T13:50:35.308Z,99.90
2023-05-06T13:53:02.335Z,99.90
2023-05-06T13:55:28.550Z,99.90
2023-05-06T13:57:54.946Z,99.90
2023-05-06T14:00:21.428Z,99.90
2023-05-06T14:02:47.670Z,99.90
2023-05-06T14:05:15.214Z,99.90
2023-05-06T14:07:41.621Z,99.90
2023-05-06T14:10:08.863Z,99.90
2023-05-06T14:12:35.334Z,99.90
2023-05-06T14:15:02.487Z,99.90
2023-05-06T14:17:28.768Z,99.90
2023-05-06T14:19:55.201Z,99.90
2023-05-06T14:22:22.272Z,99.90
2023-05-06T14:24:48.589Z,99.90
2023-05-06T14:27:15.113Z,99.90
2023-05-06T14:29:45.649Z,99.90
2023-05-06T14:32:12.489Z,99.90
2023-05-06T14:34:38.765Z,99.90
2023-05-06T14:37:06.157Z,99.90
2023-05-06T14:39:33.035Z,99.90
2023-05-06T14:41:59.312Z,99.90
2023-05-06T14:44:25.573Z,99.90
2023-05-06T14:46:51.814Z,99.90
2023-05-06T14:49:18.310Z,99.90
2023-05-06T14:51:45.267Z,99.90
2023-05-06T14:54:11.564Z,99.90
2023-05-06T14:56:38.014Z,99.90
2023-05-06T14:59:04.394Z,99.90
2023-05-06T15:01:32.805Z,99.90
2023-05-06T15:03:58.977Z,99.90
2023-05-06T15:06:25.256Z,99.90
2023-05-06T15:08:51.585Z,99.90
2023-05-06T15:11:17.776Z,99.90
2023-05-06T15:13:44.083Z,99.90
2023-05-06T15:16:11.588Z,99.90
2023-05-06T15:18:41.140Z,99.90
2023-05-06T15:21:07.541Z,99.90
2023-05-06T15:23:33.763Z,99.90
2023-05-06T15:26:00.109Z,99.90
2023-05-06T15:28:26.696Z,99.90
2023-05-06T15:30:53.003Z,99.90
2023-05-06T15:33:19.259Z,99.90
2023-05-06T15:35:45.609Z,99.90
2023-05-06T15:38:11.801Z,99.90
2023-05-06T15:40:40.002Z,99.90
2023-05-06T15:43:06.224Z,99.90
2023-05-06T15:45:32.757Z,99.90
2023-05-06T15:47:59.019Z,99.90
2023-05-06T15:53:01.314Z,99.90
2023-05-06T15:55:27.518Z,99.90
2023-05-06T15:57:54.193Z,99.90
2023-05-06T16:00:20.867Z,99.90
2023-05-06T16:02:47.640Z,99.90
2023-05-06T16:05:17.163Z,99.90
2023-05-06T16:07:43.484Z,99.90
2023-05-06T16:10:09.919Z,99.90
2023-05-06T16:12:36.413Z,99.90
2023-05-06T16:15:03.450Z,99.90
2023-05-06T16:17:29.666Z,99.90
2023-05-06T16:19:55.985Z,99.90
2023-05-06T16:22:22.200Z,99.90
2023-05-06T16:24:48.411Z,99.90
2023-05-06T16:27:15.692Z,99.90
2023-05-06T16:29:41.892Z,99.90
2023-05-06T16:32:08.065Z,99.90
2023-05-06T16:34:34.305Z,99.90
2023-05-06T16:37:00.455Z,99.90
2023-05-06T16:39:27.042Z,99.90
2023-05-06T16:41:53.200Z,99.90
2023-05-06T16:44:19.502Z,99.90
2023-05-06T16:46:45.814Z,99.90
2023-05-06T16:49:12.122Z,99.90
2023-05-06T16:51:38.348Z,99.90
2023-05-06T16:54:04.829Z,99.90
2023-05-06T16:56:43.588Z,99.90
2023-05-06T16:59:14.750Z,99.90
2023-05-06T17:01:41.027Z,99.90
2023-05-06T17:04:07.386Z,99.90
2023-05-06T17:06:33.682Z,99.90
2023-05-06T17:08:59.893Z,99.90
2023-05-06T17:11:26.019Z,99.90
2023-05-06T17:13:53.781Z,99.90
2023-05-06T17:16:20.951Z,99.90
2023-05-06T17:18:47.532Z,99.90
2023-05-06T17:21:15.394Z,99.90
2023-05-06T17:23:41.731Z,99.90
2023-05-06T17:26:10.319Z,99.90
2023-05-06T17:28:37.195Z,99.90
2023-05-06T17:31:03.741Z,99.90
2023-05-06T17:33:30.224Z,99.90
2023-05-06T17:35:56.502Z,99.90
2023-05-06T17:38:22.731Z,99.90
2023-05-06T17:40:49.254Z,99.90
2023-05-06T17:43:15.621Z,99.90
2023-05-06T17:45:42.487Z,99.90
2023-05-06T17:48:08.927Z,99.90
2023-05-06T17:50:35.673Z,99.90
2023-05-06T17:53:02.729Z,99.90
2023-05-06T17:55:29.235Z,99.90
2023-05-06T17:57:55.860Z,99.90
2023-05-06T18:00:22.883Z,99.90
2023-05-06T18:02:49.722Z,99.90
2023-05-06T18:05:16.783Z,99.90
2023-05-06T18:07:43.296Z,99.90
2023-05-06T18:10:10.193Z,99.90
2023-05-06T18:12:36.901Z,99.90
2023-05-06T18:15:04.020Z,99.90
2023-05-06T18:17:30.426Z,99.90
2023-05-06T18:19:57.015Z,99.90
2023-05-06T18:22:23.423Z,99.90
2023-05-06T18:24:54.515Z,99.90
2023-05-06T18:27:24.734Z,99.90
2023-05-06T18:29:51.501Z,99.90
2023-05-06T18:32:18.316Z,99.90
2023-05-06T18:34:45.215Z,99.90
2023-05-06T18:37:12.290Z,99.90
2023-05-06T18:39:42.170Z,99.90
2023-05-06T18:42:08.779Z,99.90
2023-05-06T18:44:35.318Z,99.90
2023-05-06T18:47:02.048Z,99.90
2023-05-06T18:49:30.409Z,99.90
2023-05-06T18:51:57.791Z,99.90
2023-05-06T18:54:26.212Z,99.90
2023-05-06T18:56:54.187Z,99.90
2023-05-06T18:59:24.496Z,99.90
2023-05-06T19:01:51.381Z,99.90
2023-05-06T19:04:23.186Z,99.90
2023-05-06T19:06:51.515Z,99.90
2023-05-06T19:09:20.738Z,99.90
2023-05-06T19:11:47.528Z,99.90
2023-05-06T19:14:14.896Z,99.90
2023-05-06T19:16:41.426Z,99.90
2023-05-06T19:19:07.841Z,99.90
2023-05-06T19:21:35.371Z,99.90
2023-05-06T19:24:07.837Z,99.90
2023-05-06T19:26:35.565Z,99.90
2023-05-06T19:29:02.780Z,99.90
2023-05-06T19:31:29.907Z,99.90
2023-05-06T19:33:57.210Z,99.90
2023-05-06T19:36:24.165Z,99.90
2023-05-06T19:38:55.310Z,99.90
2023-05-06T19:41:22.647Z,99.90
2023-05-06T19:43:54.664Z,99.90
2023-05-06T19:46:22.171Z,99.90
2023-05-06T19:48:48.810Z,99.90
2023-05-06T19:51:15.916Z,99.90
2023-05-06T19:53:42.479Z,99.90
2023-05-06T19:56:10.664Z,99.90
2023-05-06T19:58:40.492Z,99.90
2023-05-06T20:01:10.746Z,99.90
2023-05-06T20:03:40.794Z,99.90
2023-05-06T20:06:08.203Z,99.90
2023-05-06T20:08:34.697Z,99.90
2023-05-06T20:11:01.193Z,99.90
2023-05-06T20:13:28.704Z,99.90
2023-05-06T20:15:56.910Z,99.90
2023-05-06T20:18:24.701Z,99.90
2023-05-06T20:20:51.999Z,99.90
2023-05-06T20:23:18.728Z,99.90
2023-05-06T20:25:52.505Z,99.90
2023-05-06T20:28:19.297Z,99.90
2023-05-06T20:30:46.373Z,99.90
2023-05-06T20:33:13.476Z,99.90
2023-05-06T20:35:40.007Z,99.90
2023-05-06T20:38:09.077Z,99.90
2023-05-06T20:40:41.575Z,99.90
2023-05-06T20:43:08.557Z,99.90
2023-05-06T20:45:35.980Z,99.90
2023-05-06T20:48:02.614Z,99.90
2023-05-06T20:50:32.995Z,99.90
2023-05-06T20:53:00.197Z,99.90
2023-05-06T20:55:26.591Z,99.90
2023-05-06T20:57:53.673Z,99.90
2023-05-06T21:00:20.964Z,99.90
2023-05-06T21:02:47.540Z,99.90
2023-05-06T21:05:14.359Z,99.90
2023-05-06T21:07:44.836Z,99.90
2023-05-06T21:10:11.352Z,99.90
2023-05-06T21:12:47.139Z,99.90
2023-05-06T21:15:14.868Z,99.90
2023-05-06T21:17:41.252Z,99.90
2023-05-06T21:20:08.538Z,99.90
2023-05-06T21:22:35.000Z,99.90
2023-05-06T21:25:01.497Z,99.90
2023-05-06T21:27:28.478Z,99.90
2023-05-06T21:29:54.809Z,99.90
2023-05-06T21:32:21.181Z,99.90
2023-05-06T21:34:47.766Z,99.90
2023-05-06T21:37:14.396Z,99.90
2023-05-06T21:39:40.927Z,99.90
2023-05-06T21:42:07.258Z,99.90
2023-05-06T21:44:33.466Z,99.90
2023-05-06T21:47:00.124Z,99.90
2023-05-06T21:49:26.456Z,99.90
2023-05-06T21:51:52.787Z,99.90
2023-05-06T21:54:18.961Z,99.90
2023-05-06T21:56:45.346Z,99.90
2023-05-06T21:59:11.573Z,99.90
2023-05-06T22:01:37.933Z,99.90
2023-05-06T22:04:10.356Z,99.90
2023-05-06T22:06:36.634Z,99.90
2023-05-06T22:09:07.866Z,99.90
2023-05-06T22:11:37.652Z,99.90
2023-05-06T22:14:05.277Z,99.90
2023-05-06T22:16:33.095Z,99.90
2023-05-06T22:18:59.969Z,99.90
2023-05-06T22:21:26.300Z,99.90
2023-05-06T22:23:52.479Z,99.90
2023-05-06T22:26:18.861Z,99.90
2023-05-06T22:28:45.048Z,99.90
2023-05-06T22:31:12.334Z,99.90
2023-05-06T22:33:38.521Z,99.90
2023-05-06T22:36:05.491Z,99.90
2023-05-06T22:38:31.730Z,99.90
2023-05-06T22:40:57.937Z,99.90
2023-05-06T22:43:24.123Z,99.90
2023-05-06T22:45:50.408Z,99.90
2023-05-06T22:48:16.693Z,99.90
2023-05-06T22:50:42.942Z,99.90
2023-05-06T22:53:14.980Z,99.90
2023-05-06T22:55:41.957Z,99.90
2023-05-06T22:58:08.408Z,99.90
2023-05-06T23:00:34.589Z,99.90
2023-05-06T23:03:00.845Z,99.90
2023-05-06T23:05:27.144Z,99.90
2023-05-06T23:07:53.483Z,99.90
2023-05-06T23:10:19.814Z,99.90
2023-05-06T23:12:45.999Z,99.90
2023-05-06T23:15:12.519Z,99.90
2023-05-06T23:17:38.897Z,99.90
2023-05-06T23:20:07.340Z,99.90
2023-05-06T23:22:33.478Z,99.90
2023-05-06T23:24:59.643Z,99.90
2023-05-06T23:27:25.820Z,99.90
2023-05-06T23:29:51.980Z,99.90
2023-05-06T23:32:18.307Z,99.90
2023-05-06T23:34:44.468Z,99.90
2023-05-06T23:37:11.390Z,99.90
2023-05-06T23:39:37.541Z,99.90
2023-05-06T23:42:03.737Z,99.90
2023-05-06T23:44:30.155Z,99.90
2023-05-06T23:46:56.453Z,99.90
2023-05-06T23:49:22.790Z,99.90
2023-05-06T23:51:48.940Z,99.90
2023-05-06T23:54:15.097Z,99.90
2023-05-06T23:56:41.285Z,99.90
2023-05-06T23:59:07.530Z,99.90
